Terminal Aerodrome Forecast
Issued by NWS

Home | Current Version | Previous Version | Graphics & Text | Print | Product List | Glossary On
Versions: 1 2 3 4 5 6 7 8 9 10 11 12 13 14 15 16 17 18 19 20 21 22
000
FTUS43 KICT 232300
TAFRSL
TAF
KRSL 232320Z 2400/2424 VRB06KT P6SM SCT025 OVC250
     FM240500 19006KT 4SM BR SCT010 OVC250
     FM240900 20010KT P6SM BKN250
     FM241300 22011KT P6SM SCT250=

USA.gov is the U.S. government's official web portal to all federal, state and local government web resources and services.